sensor_id;sensor_type;location;lat;lon;timestamp;temperature;humidity
81216;DHT22;70688;52.492;13.420;2023-09-19T00:01:40;19.30;73.70
81216;DHT22;70688;52.492;13.420;2023-09-19T00:04:07;19.30;73.70
81216;DHT22;70688;52.492;13.420;2023-09-19T00:06:38;19.20;74.10
81216;DHT22;70688;52.492;13.420;2023-09-19T00:09:04;19.10;74.50
81216;DHT22;70688;52.492;13.420;2023-09-19T00:11:29;19.10;74.50
81216;DHT22;70688;52.492;13.420;2023-09-19T00:13:55;19.30;73.70
81216;DHT22;70688;52.492;13.420;2023-09-19T00:16:20;19.30;73.40
81216;DHT22;70688;52.492;13.420;2023-09-19T00:18:46;19.20;73.80
81216;DHT22;70688;52.492;13.420;2023-09-19T00:21:12;19.10;74.00
81216;DHT22;70688;52.492;13.420;2023-09-19T00:23:38;19.00;74.10
81216;DHT22;70688;52.492;13.420;2023-09-19T00:26:03;18.90;74.70
81216;DHT22;70688;52.492;13.420;2023-09-19T00:28:29;18.80;75.50
81216;DHT22;70688;52.492;13.420;2023-09-19T00:30:55;18.80;75.60
81216;DHT22;70688;52.492;13.420;2023-09-19T00:33:23;18.80;75.20
81216;DHT22;70688;52.492;13.420;2023-09-19T00:35:50;18.80;75.10
81216;DHT22;70688;52.492;13.420;2023-09-19T00:38:16;18.80;75.40
81216;DHT22;70688;52.492;13.420;2023-09-19T00:40:45;18.80;75.20
81216;DHT22;70688;52.492;13.420;2023-09-19T00:43:11;18.90;75.00
81216;DHT22;70688;52.492;13.420;2023-09-19T00:45:37;18.90;74.30
81216;DHT22;70688;52.492;13.420;2023-09-19T00:48:04;18.90;74.20
81216;DHT22;70688;52.492;13.420;2023-09-19T00:50:29;18.90;74.30
81216;DHT22;70688;52.492;13.420;2023-09-19T00:52:57;19.10;73.30
81216;DHT22;70688;52.492;13.420;2023-09-19T00:55:24;19.10;72.90
81216;DHT22;70688;52.492;13.420;2023-09-19T00:57:49;19.20;72.70
81216;DHT22;70688;52.492;13.420;2023-09-19T01:00:16;19.10;73.10
81216;DHT22;70688;52.492;13.420;2023-09-19T01:02:45;19.00;73.30
81216;DHT22;70688;52.492;13.420;2023-09-19T01:05:11;18.80;74.40
81216;DHT22;70688;52.492;13.420;2023-09-19T01:07:37;18.70;74.70
81216;DHT22;70688;52.492;13.420;2023-09-19T01:10:06;18.80;74.40
81216;DHT22;70688;52.492;13.420;2023-09-19T01:15:21;19.00;73.30
81216;DHT22;70688;52.492;13.420;2023-09-19T01:18:01;19.00;73.20
81216;DHT22;70688;52.492;13.420;2023-09-19T01:23:00;18.90;73.60
81216;DHT22;70688;52.492;13.420;2023-09-19T01:28:31;18.90;73.40
81216;DHT22;70688;52.492;13.420;2023-09-19T01:31:02;18.80;73.70
81216;DHT22;70688;52.492;13.420;2023-09-19T01:33:53;18.70;74.20
81216;DHT22;70688;52.492;13.420;2023-09-19T01:36:16;18.80;74.30
81216;DHT22;70688;52.492;13.420;2023-09-19T01:38:42;18.80;73.80
81216;DHT22;70688;52.492;13.420;2023-09-19T01:41:09;19.00;73.30
81216;DHT22;70688;52.492;13.420;2023-09-19T01:43:43;19.40;71.70
81216;DHT22;70688;52.492;13.420;2023-09-19T01:46:28;19.30;71.10
81216;DHT22;70688;52.492;13.420;2023-09-19T01:54:03;18.90;73.10
81216;DHT22;70688;52.492;13.420;2023-09-19T01:56:39;19.10;72.50
81216;DHT22;70688;52.492;13.420;2023-09-19T01:59:09;19.20;71.80
81216;DHT22;70688;52.492;13.420;2023-09-19T02:01:35;19.00;72.40
81216;DHT22;70688;52.492;13.420;2023-09-19T02:04:02;19.00;72.70
81216;DHT22;70688;52.492;13.420;2023-09-19T02:06:28;19.00;72.50
81216;DHT22;70688;52.492;13.420;2023-09-19T02:08:53;19.10;72.20
81216;DHT22;70688;52.492;13.420;2023-09-19T02:11:19;19.20;71.30
81216;DHT22;70688;52.492;13.420;2023-09-19T02:13:44;19.00;72.10
81216;DHT22;70688;52.492;13.420;2023-09-19T02:16:10;19.10;71.50
81216;DHT22;70688;52.492;13.420;2023-09-19T02:18:37;19.00;71.70
81216;DHT22;70688;52.492;13.420;2023-09-19T02:21:04;18.90;72.60
81216;DHT22;70688;52.492;13.420;2023-09-19T02:23:32;18.80;72.80
81216;DHT22;70688;52.492;13.420;2023-09-19T02:25:58;18.70;73.20
81216;DHT22;70688;52.492;13.420;2023-09-19T02:28:26;18.60;74.20
81216;DHT22;70688;52.492;13.420;2023-09-19T02:30:55;18.70;73.80
81216;DHT22;70688;52.492;13.420;2023-09-19T02:33:21;18.50;74.70
81216;DHT22;70688;52.492;13.420;2023-09-19T02:35:47;18.60;74.00
81216;DHT22;70688;52.492;13.420;2023-09-19T02:38:12;18.70;73.70
81216;DHT22;70688;52.492;13.420;2023-09-19T02:40:38;18.70;73.10
81216;DHT22;70688;52.492;13.420;2023-09-19T02:43:03;18.60;73.90
81216;DHT22;70688;52.492;13.420;2023-09-19T02:45:30;18.60;74.50
81216;DHT22;70688;52.492;13.420;2023-09-19T02:47:56;18.70;73.80
81216;DHT22;70688;52.492;13.420;2023-09-19T02:50:22;18.60;73.30
81216;DHT22;70688;52.492;13.420;2023-09-19T02:52:47;18.80;73.50
81216;DHT22;70688;52.492;13.420;2023-09-19T02:55:14;18.60;73.80
81216;DHT22;70688;52.492;13.420;2023-09-19T02:57:52;18.60;74.40
81216;DHT22;70688;52.492;13.420;2023-09-19T03:00:20;18.80;73.20
81216;DHT22;70688;52.492;13.420;2023-09-19T03:02:55;18.70;73.10
81216;DHT22;70688;52.492;13.420;2023-09-19T03:05:21;18.70;73.40
81216;DHT22;70688;52.492;13.420;2023-09-19T03:07:48;18.80;73.20
81216;DHT22;70688;52.492;13.420;2023-09-19T03:10:16;19.00;72.60
81216;DHT22;70688;52.492;13.420;2023-09-19T03:12:41;19.10;71.70
81216;DHT22;70688;52.492;13.420;2023-09-19T03:15:07;18.90;72.00
81216;DHT22;70688;52.492;13.420;2023-09-19T03:17:34;18.90;72.50
81216;DHT22;70688;52.492;13.420;2023-09-19T03:19:59;18.80;72.80
81216;DHT22;70688;52.492;13.420;2023-09-19T03:22:27;19.00;72.20
81216;DHT22;70688;52.492;13.420;2023-09-19T03:24:52;18.90;72.40
81216;DHT22;70688;52.492;13.420;2023-09-19T03:27:18;19.00;72.50
81216;DHT22;70688;52.492;13.420;2023-09-19T03:29:44;19.00;71.10
81216;DHT22;70688;52.492;13.420;2023-09-19T03:32:09;19.20;70.20
81216;DHT22;70688;52.492;13.420;2023-09-19T03:34:36;19.20;69.70
81216;DHT22;70688;52.492;13.420;2023-09-19T03:37:01;19.10;69.70
81216;DHT22;70688;52.492;13.420;2023-09-19T03:39:27;19.20;69.60
81216;DHT22;70688;52.492;13.420;2023-09-19T03:41:52;19.20;69.50
81216;DHT22;70688;52.492;13.420;2023-09-19T03:44:18;19.20;69.00
81216;DHT22;70688;52.492;13.420;2023-09-19T03:46:43;19.20;68.80
81216;DHT22;70688;52.492;13.420;2023-09-19T03:49:09;19.30;67.70
81216;DHT22;70688;52.492;13.420;2023-09-19T03:51:35;19.20;68.40
81216;DHT22;70688;52.492;13.420;2023-09-19T03:54:02;19.30;67.90
81216;DHT22;70688;52.492;13.420;2023-09-19T03:56:29;19.40;67.50
81216;DHT22;70688;52.492;13.420;2023-09-19T03:58:55;19.30;67.40
81216;DHT22;70688;52.492;13.420;2023-09-19T04:01:20;19.00;68.90
81216;DHT22;70688;52.492;13.420;2023-09-19T04:03:46;18.80;69.60
81216;DHT22;70688;52.492;13.420;2023-09-19T04:06:13;18.80;69.00
81216;DHT22;70688;52.492;13.420;2023-09-19T04:08:38;19.00;68.10
81216;DHT22;70688;52.492;13.420;2023-09-19T04:11:04;19.20;67.10
81216;DHT22;70688;52.492;13.420;2023-09-19T04:13:30;19.00;67.40
81216;DHT22;70688;52.492;13.420;2023-09-19T04:15:55;19.20;66.30
81216;DHT22;70688;52.492;13.420;2023-09-19T04:18:21;19.20;65.30
81216;DHT22;70688;52.492;13.420;2023-09-19T04:20:49;19.20;64.60
81216;DHT22;70688;52.492;13.420;2023-09-19T04:23:15;19.20;64.50
81216;DHT22;70688;52.492;13.420;2023-09-19T04:25:40;19.20;64.10
81216;DHT22;70688;52.492;13.420;2023-09-19T04:28:09;19.20;63.40
81216;DHT22;70688;52.492;13.420;2023-09-19T04:30:38;19.30;63.00
81216;DHT22;70688;52.492;13.420;2023-09-19T04:33:05;19.30;63.10
81216;DHT22;70688;52.492;13.420;2023-09-19T04:35:31;19.30;62.70
81216;DHT22;70688;52.492;13.420;2023-09-19T04:37:57;19.30;62.60
81216;DHT22;70688;52.492;13.420;2023-09-19T04:40:23;19.40;62.40
81216;DHT22;70688;52.492;13.420;2023-09-19T04:42:53;19.30;62.40
81216;DHT22;70688;52.492;13.420;2023-09-19T04:45:22;19.20;62.30
81216;DHT22;70688;52.492;13.420;2023-09-19T04:47:47;19.20;62.30
81216;DHT22;70688;52.492;13.420;2023-09-19T04:50:13;19.30;61.90
81216;DHT22;70688;52.492;13.420;2023-09-19T04:52:41;19.30;62.20
81216;DHT22;70688;52.492;13.420;2023-09-19T04:55:08;19.20;62.20
81216;DHT22;70688;52.492;13.420;2023-09-19T04:57:36;19.20;62.70
81216;DHT22;70688;52.492;13.420;2023-09-19T05:00:02;19.10;62.20
81216;DHT22;70688;52.492;13.420;2023-09-19T05:02:32;19.20;62.30
81216;DHT22;70688;52.492;13.420;2023-09-19T05:04:57;19.20;62.10
81216;DHT22;70688;52.492;13.420;2023-09-19T05:07:25;19.10;62.20
81216;DHT22;70688;52.492;13.420;2023-09-19T05:09:51;19.00;62.80
81216;DHT22;70688;52.492;13.420;2023-09-19T05:12:17;18.90;63.10
81216;DHT22;70688;52.492;13.420;2023-09-19T05:14:45;19.00;62.70
81216;DHT22;70688;52.492;13.420;2023-09-19T05:17:10;19.10;62.20
81216;DHT22;70688;52.492;13.420;2023-09-19T05:19:36;19.10;62.00
81216;DHT22;70688;52.492;13.420;2023-09-19T05:22:03;19.10;62.00
81216;DHT22;70688;52.492;13.420;2023-09-19T05:24:29;19.10;62.00
81216;DHT22;70688;52.492;13.420;2023-09-19T05:26:56;19.10;61.90
81216;DHT22;70688;52.492;13.420;2023-09-19T05:29:22;19.10;62.70
81216;DHT22;70688;52.492;13.420;2023-09-19T05:31:47;19.10;61.50
81216;DHT22;70688;52.492;13.420;2023-09-19T05:34:13;19.10;61.80
81216;DHT22;70688;52.492;13.420;2023-09-19T05:36:39;19.00;62.10
81216;DHT22;70688;52.492;13.420;2023-09-19T05:39:04;19.00;61.80
81216;DHT22;70688;52.492;13.420;2023-09-19T05:41:31;19.00;61.60
81216;DHT22;70688;52.492;13.420;2023-09-19T05:43:57;18.90;61.90
81216;DHT22;70688;52.492;13.420;2023-09-19T05:46:24;18.90;62.30
81216;DHT22;70688;52.492;13.420;2023-09-19T05:48:55;19.00;62.10
81216;DHT22;70688;52.492;13.420;2023-09-19T05:51:22;19.10;61.30
81216;DHT22;70688;52.492;13.420;2023-09-19T05:53:48;19.10;61.50
81216;DHT22;70688;52.492;13.420;2023-09-19T05:56:14;19.10;61.10
81216;DHT22;70688;52.492;13.420;2023-09-19T05:58:40;19.10;61.00
81216;DHT22;70688;52.492;13.420;2023-09-19T06:01:08;19.20;60.70
81216;DHT22;70688;52.492;13.420;2023-09-19T06:03:34;19.10;60.60
81216;DHT22;70688;52.492;13.420;2023-09-19T06:06:03;19.20;61.80
81216;DHT22;70688;52.492;13.420;2023-09-19T06:08:32;19.20;60.50
81216;DHT22;70688;52.492;13.420;2023-09-19T06:10:57;19.40;59.70
81216;DHT22;70688;52.492;13.420;2023-09-19T06:13:23;19.30;61.10
81216;DHT22;70688;52.492;13.420;2023-09-19T06:15:50;19.40;60.00
81216;DHT22;70688;52.492;13.420;2023-09-19T06:18:16;19.40;59.80
81216;DHT22;70688;52.492;13.420;2023-09-19T06:20:46;19.60;59.40
81216;DHT22;70688;52.492;13.420;2023-09-19T06:23:12;19.50;59.70
81216;DHT22;70688;52.492;13.420;2023-09-19T06:25:37;19.40;59.10
81216;DHT22;70688;52.492;13.420;2023-09-19T06:28:03;19.60;58.60
81216;DHT22;70688;52.492;13.420;2023-09-19T06:30:30;19.70;58.40
81216;DHT22;70688;52.492;13.420;2023-09-19T06:32:56;19.70;58.60
81216;DHT22;70688;52.492;13.420;2023-09-19T06:35:22;20.00;57.50
81216;DHT22;70688;52.492;13.420;2023-09-19T06:37:48;20.00;57.40
81216;DHT22;70688;52.492;13.420;2023-09-19T06:40:14;20.10;57.30
81216;DHT22;70688;52.492;13.420;2023-09-19T06:42:44;20.30;56.40
81216;DHT22;70688;52.492;13.420;2023-09-19T06:45:12;20.40;55.70
81216;DHT22;70688;52.492;13.420;2023-09-19T06:47:43;21.60;53.20
81216;DHT22;70688;52.492;13.420;2023-09-19T06:50:08;23.10;48.90
81216;DHT22;70688;52.492;13.420;2023-09-19T06:52:34;24.00;45.70
81216;DHT22;70688;52.492;13.420;2023-09-19T06:55:00;24.60;44.00
81216;DHT22;70688;52.492;13.420;2023-09-19T06:57:28;25.10;42.70
81216;DHT22;70688;52.492;13.420;2023-09-19T06:59:55;25.50;41.70
81216;DHT22;70688;52.492;13.420;2023-09-19T07:02:21;24.80;42.20
81216;DHT22;70688;52.492;13.420;2023-09-19T07:04:47;26.00;39.90
81216;DHT22;70688;52.492;13.420;2023-09-19T07:07:12;28.20;36.20
81216;DHT22;70688;52.492;13.420;2023-09-19T07:09:48;29.90;32.80
81216;DHT22;70688;52.492;13.420;2023-09-19T07:12:14;30.20;30.70
81216;DHT22;70688;52.492;13.420;2023-09-19T07:14:39;30.50;30.60
81216;DHT22;70688;52.492;13.420;2023-09-19T07:17:05;31.50;29.40
81216;DHT22;70688;52.492;13.420;2023-09-19T07:19:31;31.40;29.00
81216;DHT22;70688;52.492;13.420;2023-09-19T07:21:56;30.30;30.00
81216;DHT22;70688;52.492;13.420;2023-09-19T07:24:24;29.50;30.90
81216;DHT22;70688;52.492;13.420;2023-09-19T07:26:51;28.90;32.40
81216;DHT22;70688;52.492;13.420;2023-09-19T07:29:17;28.20;33.30
81216;DHT22;70688;52.492;13.420;2023-09-19T07:31:42;27.50;34.40
81216;DHT22;70688;52.492;13.420;2023-09-19T07:34:09;27.10;35.10
81216;DHT22;70688;52.492;13.420;2023-09-19T07:36:35;25.60;37.50
81216;DHT22;70688;52.492;13.420;2023-09-19T07:39:02;24.80;39.80
81216;DHT22;70688;52.492;13.420;2023-09-19T07:41:32;24.50;41.10
81216;DHT22;70688;52.492;13.420;2023-09-19T07:43:58;25.50;38.50
81216;DHT22;70688;52.492;13.420;2023-09-19T07:46:23;26.10;37.30
81216;DHT22;70688;52.492;13.420;2023-09-19T07:48:50;25.90;36.90
81216;DHT22;70688;52.492;13.420;2023-09-19T07:51:15;25.10;38.60
81216;DHT22;70688;52.492;13.420;2023-09-19T07:53:41;24.40;39.80
81216;DHT22;70688;52.492;13.420;2023-09-19T07:56:07;23.60;42.00
81216;DHT22;70688;52.492;13.420;2023-09-19T07:58:33;23.50;41.30
81216;DHT22;70688;52.492;13.420;2023-09-19T08:01:03;24.10;40.40
81216;DHT22;70688;52.492;13.420;2023-09-19T08:03:28;24.50;39.60
81216;DHT22;70688;52.492;13.420;2023-09-19T08:05:55;24.60;39.00
81216;DHT22;70688;52.492;13.420;2023-09-19T08:08:23;24.50;39.30
81216;DHT22;70688;52.492;13.420;2023-09-19T08:10:52;24.70;38.70
81216;DHT22;70688;52.492;13.420;2023-09-19T08:13:18;24.50;39.00
81216;DHT22;70688;52.492;13.420;2023-09-19T08:15:43;24.00;40.60
81216;DHT22;70688;52.492;13.420;2023-09-19T08:18:09;24.20;39.80
81216;DHT22;70688;52.492;13.420;2023-09-19T08:20:38;25.30;37.40
81216;DHT22;70688;52.492;13.420;2023-09-19T08:23:03;25.40;36.30
81216;DHT22;70688;52.492;13.420;2023-09-19T08:25:29;25.00;36.50
81216;DHT22;70688;52.492;13.420;2023-09-19T08:27:54;24.40;38.40
81216;DHT22;70688;52.492;13.420;2023-09-19T08:30:23;24.00;39.10
81216;DHT22;70688;52.492;13.420;2023-09-19T08:32:49;23.30;40.60
81216;DHT22;70688;52.492;13.420;2023-09-19T08:35:15;22.90;41.40
81216;DHT22;70688;52.492;13.420;2023-09-19T08:37:44;23.20;41.50
81216;DHT22;70688;52.492;13.420;2023-09-19T08:40:13;23.10;41.20
81216;DHT22;70688;52.492;13.420;2023-09-19T08:45:14;24.60;38.30
81216;DHT22;70688;52.492;13.420;2023-09-19T08:47:41;26.50;34.20
81216;DHT22;70688;52.492;13.420;2023-09-19T08:52:42;26.20;34.40
81216;DHT22;70688;52.492;13.420;2023-09-19T08:55:09;26.80;33.00
81216;DHT22;70688;52.492;13.420;2023-09-19T08:57:38;26.80;32.40
81216;DHT22;70688;52.492;13.420;2023-09-19T09:00:07;26.40;33.10
81216;DHT22;70688;52.492;13.420;2023-09-19T09:02:40;26.50;33.10
81216;DHT22;70688;52.492;13.420;2023-09-19T09:05:07;27.00;32.30
81216;DHT22;70688;52.492;13.420;2023-09-19T09:07:35;26.80;32.50
81216;DHT22;70688;52.492;13.420;2023-09-19T09:10:02;26.00;33.40
81216;DHT22;70688;52.492;13.420;2023-09-19T09:12:28;25.30;34.10
81216;DHT22;70688;52.492;13.420;2023-09-19T09:14:54;25.80;33.90
81216;DHT22;70688;52.492;13.420;2023-09-19T09:17:22;27.10;31.80
81216;DHT22;70688;52.492;13.420;2023-09-19T09:19:47;27.10;31.30
81216;DHT22;70688;52.492;13.420;2023-09-19T09:22:13;26.40;32.60
81216;DHT22;70688;52.492;13.420;2023-09-19T09:24:51;26.10;33.40
81216;DHT22;70688;52.492;13.420;2023-09-19T09:27:19;24.90;35.10
81216;DHT22;70688;52.492;13.420;2023-09-19T09:29:46;24.30;36.80
81216;DHT22;70688;52.492;13.420;2023-09-19T09:32:18;23.90;37.30
81216;DHT22;70688;52.492;13.420;2023-09-19T09:34:44;23.80;37.40
81216;DHT22;70688;52.492;13.420;2023-09-19T09:37:13;23.50;39.00
81216;DHT22;70688;52.492;13.420;2023-09-19T09:39:40;23.10;38.60
81216;DHT22;70688;52.492;13.420;2023-09-19T09:42:05;23.10;38.30
81216;DHT22;70688;52.492;13.420;2023-09-19T09:44:32;23.00;39.10
81216;DHT22;70688;52.492;13.420;2023-09-19T09:46:58;22.90;39.30
81216;DHT22;70688;52.492;13.420;2023-09-19T09:49:42;23.00;39.40
81216;DHT22;70688;52.492;13.420;2023-09-19T09:52:19;22.80;39.60
81216;DHT22;70688;52.492;13.420;2023-09-19T09:55:02;22.90;38.60
81216;DHT22;70688;52.492;13.420;2023-09-19T09:57:32;22.80;38.40
81216;DHT22;70688;52.492;13.420;2023-09-19T09:59:59;22.90;38.80
81216;DHT22;70688;52.492;13.420;2023-09-19T10:02:37;22.80;39.00
81216;DHT22;70688;52.492;13.420;2023-09-19T10:05:11;23.00;38.10
81216;DHT22;70688;52.492;13.420;2023-09-19T10:07:41;22.80;37.80
81216;DHT22;70688;52.492;13.420;2023-09-19T10:10:12;22.70;36.90
81216;DHT22;70688;52.492;13.420;2023-09-19T10:12:45;22.80;36.20
81216;DHT22;70688;52.492;13.420;2023-09-19T10:15:11;22.90;36.20
81216;DHT22;70688;52.492;13.420;2023-09-19T10:17:42;22.80;36.80
81216;DHT22;70688;52.492;13.420;2023-09-19T10:20:09;22.60;37.30
81216;DHT22;70688;52.492;13.420;2023-09-19T10:22:45;22.60;37.70
81216;DHT22;70688;52.492;13.420;2023-09-19T10:25:23;22.70;37.50
81216;DHT22;70688;52.492;13.420;2023-09-19T10:27:49;22.80;37.20
81216;DHT22;70688;52.492;13.420;2023-09-19T10:30:15;22.90;36.80
81216;DHT22;70688;52.492;13.420;2023-09-19T10:32:42;22.90;36.70
81216;DHT22;70688;52.492;13.420;2023-09-19T10:35:07;23.00;36.70
81216;DHT22;70688;52.492;13.420;2023-09-19T10:37:33;23.20;35.80
81216;DHT22;70688;52.492;13.420;2023-09-19T10:39:59;23.40;35.70
81216;DHT22;70688;52.492;13.420;2023-09-19T10:42:25;23.40;35.00
81216;DHT22;70688;52.492;13.420;2023-09-19T10:44:54;23.40;34.90
81216;DHT22;70688;52.492;13.420;2023-09-19T10:47:20;23.00;35.30
81216;DHT22;70688;52.492;13.420;2023-09-19T10:49:49;23.00;35.80
81216;DHT22;70688;52.492;13.420;2023-09-19T10:52:15;23.00;36.10
81216;DHT22;70688;52.492;13.420;2023-09-19T10:54:48;22.90;35.40
81216;DHT22;70688;52.492;13.420;2023-09-19T10:57:20;22.80;34.90
81216;DHT22;70688;52.492;13.420;2023-09-19T11:00:04;22.80;34.80
81216;DHT22;70688;52.492;13.420;2023-09-19T11:03:16;22.90;34.20
81216;DHT22;70688;52.492;13.420;2023-09-19T11:05:32;22.70;34.30
81216;DHT22;70688;52.492;13.420;2023-09-19T11:07:59;22.10;35.50
81216;DHT22;70688;52.492;13.420;2023-09-19T11:10:46;22.10;36.20
81216;DHT22;70688;52.492;13.420;2023-09-19T11:26:47;22.80;34.00
81216;DHT22;70688;52.492;13.420;2023-09-19T11:29:26;22.70;33.90
81216;DHT22;70688;52.492;13.420;2023-09-19T11:31:52;22.80;33.80
81216;DHT22;70688;52.492;13.420;2023-09-19T11:39:39;22.70;33.60
81216;DHT22;70688;52.492;13.420;2023-09-19T11:44:52;22.80;33.30
81216;DHT22;70688;52.492;13.420;2023-09-19T11:47:21;22.90;33.40
81216;DHT22;70688;52.492;13.420;2023-09-19T11:49:47;22.90;33.40
81216;DHT22;70688;52.492;13.420;2023-09-19T11:52:18;22.80;33.80
81216;DHT22;70688;52.492;13.420;2023-09-19T11:54:48;22.90;34.20
81216;DHT22;70688;52.492;13.420;2023-09-19T11:57:22;22.80;34.10
81216;DHT22;70688;52.492;13.420;2023-09-19T11:59:47;23.10;33.80
81216;DHT22;70688;52.492;13.420;2023-09-19T12:02:15;23.00;33.30
81216;DHT22;70688;52.492;13.420;2023-09-19T12:04:44;23.00;32.60
81216;DHT22;70688;52.492;13.420;2023-09-19T12:07:16;22.90;32.70
81216;DHT22;70688;52.492;13.420;2023-09-19T12:09:42;22.90;32.20
81216;DHT22;70688;52.492;13.420;2023-09-19T12:12:22;23.00;32.60
81216;DHT22;70688;52.492;13.420;2023-09-19T12:14:48;23.10;32.60
81216;DHT22;70688;52.492;13.420;2023-09-19T12:17:14;23.20;32.10
81216;DHT22;70688;52.492;13.420;2023-09-19T12:19:49;23.30;31.60
81216;DHT22;70688;52.492;13.420;2023-09-19T12:22:15;23.20;31.90
81216;DHT22;70688;52.492;13.420;2023-09-19T12:24:41;22.90;33.20
81216;DHT22;70688;52.492;13.420;2023-09-19T12:27:09;23.00;32.40
81216;DHT22;70688;52.492;13.420;2023-09-19T12:29:49;23.10;31.70
81216;DHT22;70688;52.492;13.420;2023-09-19T12:32:15;23.20;31.50
81216;DHT22;70688;52.492;13.420;2023-09-19T12:34:52;22.90;32.20
81216;DHT22;70688;52.492;13.420;2023-09-19T12:37:19;23.00;31.70
81216;DHT22;70688;52.492;13.420;2023-09-19T12:39:50;22.90;31.50
81216;DHT22;70688;52.492;13.420;2023-09-19T12:42:20;22.80;32.10
81216;DHT22;70688;52.492;13.420;2023-09-19T12:44:47;22.90;31.80
81216;DHT22;70688;52.492;13.420;2023-09-19T12:47:14;23.30;31.10
81216;DHT22;70688;52.492;13.420;2023-09-19T12:52:31;23.40;31.30
81216;DHT22;70688;52.492;13.420;2023-09-19T12:54:59;23.60;31.10
81216;DHT22;70688;52.492;13.420;2023-09-19T12:57:28;23.50;30.60
81216;DHT22;70688;52.492;13.420;2023-09-19T12:59:53;23.40;31.10
81216;DHT22;70688;52.492;13.420;2023-09-19T13:02:20;23.20;31.30
81216;DHT22;70688;52.492;13.420;2023-09-19T13:04:52;22.90;31.70
81216;DHT22;70688;52.492;13.420;2023-09-19T13:10:04;23.00;32.40
81216;DHT22;70688;52.492;13.420;2023-09-19T13:12:37;23.10;32.30
81216;DHT22;70688;52.492;13.420;2023-09-19T13:15:10;23.10;32.30
81216;DHT22;70688;52.492;13.420;2023-09-19T13:17:45;23.20;32.60
81216;DHT22;70688;52.492;13.420;2023-09-19T13:20:21;23.20;32.40
81216;DHT22;70688;52.492;13.420;2023-09-19T13:22:50;22.90;32.60
81216;DHT22;70688;52.492;13.420;2023-09-19T13:25:19;22.70;32.80
81216;DHT22;70688;52.492;13.420;2023-09-19T13:27:52;23.00;32.10
81216;DHT22;70688;52.492;13.420;2023-09-19T13:30:20;22.90;32.40
81216;DHT22;70688;52.492;13.420;2023-09-19T13:32:45;22.70;32.20
81216;DHT22;70688;52.492;13.420;2023-09-19T13:35:12;22.80;32.80
81216;DHT22;70688;52.492;13.420;2023-09-19T13:37:39;22.90;32.50
81216;DHT22;70688;52.492;13.420;2023-09-19T13:40:08;22.60;32.80
81216;DHT22;70688;52.492;13.420;2023-09-19T13:42:34;22.70;33.00
81216;DHT22;70688;52.492;13.420;2023-09-19T13:45:04;22.60;32.90
81216;DHT22;70688;52.492;13.420;2023-09-19T13:47:30;22.50;33.50
81216;DHT22;70688;52.492;13.420;2023-09-19T13:49:56;22.70;33.10
81216;DHT22;70688;52.492;13.420;2023-09-19T13:52:22;22.70;33.20
81216;DHT22;70688;52.492;13.420;2023-09-19T13:54:49;22.70;33.10
81216;DHT22;70688;52.492;13.420;2023-09-19T13:57:15;22.70;33.40
81216;DHT22;70688;52.492;13.420;2023-09-19T13:59:41;22.60;33.20
81216;DHT22;70688;52.492;13.420;2023-09-19T14:02:07;22.40;33.70
81216;DHT22;70688;52.492;13.420;2023-09-19T14:04:33;22.50;33.40
81216;DHT22;70688;52.492;13.420;2023-09-19T14:07:00;22.50;33.20
81216;DHT22;70688;52.492;13.420;2023-09-19T14:09:26;22.70;32.80
81216;DHT22;70688;52.492;13.420;2023-09-19T14:11:51;22.70;32.90
81216;DHT22;70688;52.492;13.420;2023-09-19T14:14:21;22.90;32.70
81216;DHT22;70688;52.492;13.420;2023-09-19T14:16:49;22.90;32.60
81216;DHT22;70688;52.492;13.420;2023-09-19T14:19:15;22.90;32.70
81216;DHT22;70688;52.492;13.420;2023-09-19T14:21:41;23.00;32.70
81216;DHT22;70688;52.492;13.420;2023-09-19T14:24:07;23.10;32.50
81216;DHT22;70688;52.492;13.420;2023-09-19T14:26:35;23.00;32.70
81216;DHT22;70688;52.492;13.420;2023-09-19T14:29:00;22.90;32.80
81216;DHT22;70688;52.492;13.420;2023-09-19T14:31:26;22.70;33.10
81216;DHT22;70688;52.492;13.420;2023-09-19T14:33:53;22.60;33.30
81216;DHT22;70688;52.492;13.420;2023-09-19T14:36:19;22.60;33.40
81216;DHT22;70688;52.492;13.420;2023-09-19T14:38:46;22.60;33.90
81216;DHT22;70688;52.492;13.420;2023-09-19T14:41:12;22.50;34.20
81216;DHT22;70688;52.492;13.420;2023-09-19T14:43:38;22.70;33.70
81216;DHT22;70688;52.492;13.420;2023-09-19T14:46:04;22.70;33.80
81216;DHT22;70688;52.492;13.420;2023-09-19T14:48:30;22.70;33.80
81216;DHT22;70688;52.492;13.420;2023-09-19T14:50:57;22.60;34.00
81216;DHT22;70688;52.492;13.420;2023-09-19T14:53:27;22.10;34.70
81216;DHT22;70688;52.492;13.420;2023-09-19T14:55:53;22.10;34.80
81216;DHT22;70688;52.492;13.420;2023-09-19T14:58:20;22.00;34.50
81216;DHT22;70688;52.492;13.420;2023-09-19T15:00:46;22.10;34.10
81216;DHT22;70688;52.492;13.420;2023-09-19T15:03:12;22.00;34.30
81216;DHT22;70688;52.492;13.420;2023-09-19T15:05:38;22.30;33.90
81216;DHT22;70688;52.492;13.420;2023-09-19T15:08:04;22.40;33.60
81216;DHT22;70688;52.492;13.420;2023-09-19T15:10:31;22.20;33.60
81216;DHT22;70688;52.492;13.420;2023-09-19T15:12:57;22.50;34.80
81216;DHT22;70688;52.492;13.420;2023-09-19T15:15:22;22.50;33.60
81216;DHT22;70688;52.492;13.420;2023-09-19T15:17:48;22.20;33.80
81216;DHT22;70688;52.492;13.420;2023-09-19T15:20:14;22.40;34.00
81216;DHT22;70688;52.492;13.420;2023-09-19T15:22:39;22.30;34.10
81216;DHT22;70688;52.492;13.420;2023-09-19T15:25:05;22.10;34.40
81216;DHT22;70688;52.492;13.420;2023-09-19T15:27:31;22.30;34.10
81216;DHT22;70688;52.492;13.420;2023-09-19T15:29:58;22.20;34.10
81216;DHT22;70688;52.492;13.420;2023-09-19T15:32:24;22.40;33.70
81216;DHT22;70688;52.492;13.420;2023-09-19T15:34:50;22.20;34.10
81216;DHT22;70688;52.492;13.420;2023-09-19T15:37:15;22.20;34.00
81216;DHT22;70688;52.492;13.420;2023-09-19T15:39:41;22.20;33.90
81216;DHT22;70688;52.492;13.420;2023-09-19T15:42:07;22.10;34.40
81216;DHT22;70688;52.492;13.420;2023-09-19T15:44:32;21.90;35.00
81216;DHT22;70688;52.492;13.420;2023-09-19T15:46:58;21.60;35.40
81216;DHT22;70688;52.492;13.420;2023-09-19T15:49:23;21.60;35.90
81216;DHT22;70688;52.492;13.420;2023-09-19T15:51:49;21.60;36.20
81216;DHT22;70688;52.492;13.420;2023-09-19T15:54:15;21.50;36.40
81216;DHT22;70688;52.492;13.420;2023-09-19T15:56:43;21.70;36.10
81216;DHT22;70688;52.492;13.420;2023-09-19T15:59:09;22.10;35.30
81216;DHT22;70688;52.492;13.420;2023-09-19T16:01:37;22.10;35.10
81216;DHT22;70688;52.492;13.420;2023-09-19T16:04:03;22.00;35.30